Heat Index [SAI AWOS/ASOS Display]_________FAA Disclaimer: "Not for use in aviation at this time______________" Untitled Document
Hamilton Municipal Airport NY (VGC)
260
16:24
17/12/06
08
16
N/A
29.89
N/A
1134
35(F), 2(C)
13(F), -11(C)
28 F
37%
CLR
10
N/A
N/A
N/A
16:24 zulu Wind 260 at 07 Knots, Gusting 16 Knots, Altimeter 29.89
METAR KVGC 061624Z AUTO 26007G16KT 10SM CLR 02/M11 A2989 A02
METAR:
FAA Disclaimer--Advisory Use ONLY, not for flight info--
INFO:
Wind Direction:
Wind Speed:
Wind Gust:
Wind Variable:
Altimeter:
Dens Alt:
Elev:
Temp:
Dwpt:
Wind Chill
Rel Humidity:
Ceiling:
Visibility:
Prsnt Wea:
PCPN:
Remarks:
NOTICE--Current weather data is more than 15 minutes old. The SAI AWOS/ASOS Display is inoperative at this time.
How to read the WebPage